sensor_id;sensor_type;location;lat;lon;timestamp;pressure;altitude;pressure_sealevel;temperature;humidity
43707;BME280;61348;53.392;-6.248;2023-06-10T00:00:48;100633.94;;;17.08;69.19
43707;BME280;61348;53.392;-6.248;2023-06-10T00:03:14;100633.13;;;17.07;69.24
43707;BME280;61348;53.392;-6.248;2023-06-10T00:05:46;100641.47;;;17.03;69.26
43707;BME280;61348;53.392;-6.248;2023-06-10T00:08:13;100638.66;;;16.96;69.46
43707;BME280;61348;53.392;-6.248;2023-06-10T00:10:46;100630.25;;;16.93;69.50
43707;BME280;61348;53.392;-6.248;2023-06-10T00:13:12;100630.59;;;16.88;69.74
43707;BME280;61348;53.392;-6.248;2023-06-10T00:15:39;100628.16;;;16.79;69.93
43707;BME280;61348;53.392;-6.248;2023-06-10T00:18:06;100626.13;;;16.76;70.04
43707;BME280;61348;53.392;-6.248;2023-06-10T00:20:36;100628.16;;;16.76;70.20
43707;BME280;61348;53.392;-6.248;2023-06-10T00:23:04;100633.34;;;16.77;70.23
43707;BME280;61348;53.392;-6.248;2023-06-10T00:25:33;100630.94;;;16.76;70.39
43707;BME280;61348;53.392;-6.248;2023-06-10T00:28:00;100623.75;;;16.75;70.47
43707;BME280;61348;53.392;-6.248;2023-06-10T00:30:26;100623.34;;;16.73;70.63
43707;BME280;61348;53.392;-6.248;2023-06-10T00:32:53;100628.88;;;16.69;70.87
43707;BME280;61348;53.392;-6.248;2023-06-10T00:35:20;100632.09;;;16.68;70.82
43707;BME280;61348;53.392;-6.248;2023-06-10T00:37:47;100632.88;;;16.68;70.92
43707;BME280;61348;53.392;-6.248;2023-06-10T00:40:14;100632.88;;;16.65;71.03
43707;BME280;61348;53.392;-6.248;2023-06-10T00:42:41;100635.22;;;16.63;71.16
43707;BME280;61348;53.392;-6.248;2023-06-10T00:45:08;100620.03;;;16.60;71.10
43707;BME280;61348;53.392;-6.248;2023-06-10T00:47:35;100621.59;;;16.58;71.32
43707;BME280;61348;53.392;-6.248;2023-06-10T00:50:03;100626.38;;;16.54;71.63
43707;BME280;61348;53.392;-6.248;2023-06-10T00:52:30;100621.53;;;16.51;71.57
43707;BME280;61348;53.392;-6.248;2023-06-10T00:54:57;100628.72;;;16.48;71.73
43707;BME280;61348;53.392;-6.248;2023-06-10T00:57:26;100624.69;;;16.45;71.68
43707;BME280;61348;53.392;-6.248;2023-06-10T00:59:53;100631.06;;;16.42;71.98
43707;BME280;61348;53.392;-6.248;2023-06-10T01:02:20;100617.03;;;16.35;72.05
43707;BME280;61348;53.392;-6.248;2023-06-10T01:04:47;100608.63;;;16.32;72.17
43707;BME280;61348;53.392;-6.248;2023-06-10T01:10:02;100617.41;;;16.30;72.52
43707;BME280;61348;53.392;-6.248;2023-06-10T01:12:36;100610.19;;;16.29;72.46
43707;BME280;61348;53.392;-6.248;2023-06-10T01:15:04;100610.97;;;16.26;72.69
43707;BME280;61348;53.392;-6.248;2023-06-10T01:17:32;100617.75;;;16.25;72.93
43707;BME280;61348;53.392;-6.248;2023-06-10T01:19:59;100614.53;;;16.23;72.90
43707;BME280;61348;53.392;-6.248;2023-06-10T01:22:27;100635.28;;;16.22;73.10
43707;BME280;61348;53.392;-6.248;2023-06-10T01:25:03;100621.72;;;16.24;72.96
43707;BME280;61348;53.392;-6.248;2023-06-10T01:27:33;100617.31;;;16.23;72.90
43707;BME280;61348;53.392;-6.248;2023-06-10T01:30:12;100612.50;;;16.20;73.14
43707;BME280;61348;53.392;-6.248;2023-06-10T01:32:48;100608.13;;;16.19;73.03
43707;BME280;61348;53.392;-6.248;2023-06-10T01:35:17;100602.91;;;16.14;73.26
43707;BME280;61348;53.392;-6.248;2023-06-10T01:37:46;100612.03;;;16.11;73.42
43707;BME280;61348;53.392;-6.248;2023-06-10T01:40:15;100601.69;;;16.12;73.44
43707;BME280;61348;53.392;-6.248;2023-06-10T01:42:42;100597.69;;;16.13;73.69
43707;BME280;61348;53.392;-6.248;2023-06-10T01:45:09;100593.66;;;16.10;73.77
43707;BME280;61348;53.392;-6.248;2023-06-10T01:47:36;100589.28;;;16.09;73.84
43707;BME280;61348;53.392;-6.248;2023-06-10T01:50:03;100593.25;;;16.08;74.03
43707;BME280;61348;53.392;-6.248;2023-06-10T01:52:32;100593.25;;;16.08;74.22
43707;BME280;61348;53.392;-6.248;2023-06-10T01:54:58;100597.69;;;16.09;74.13
43707;BME280;61348;53.392;-6.248;2023-06-10T01:57:27;100588.84;;;16.07;74.34
43707;BME280;61348;53.392;-6.248;2023-06-10T01:59:54;100590.47;;;16.08;74.56
43707;BME280;61348;53.392;-6.248;2023-06-10T02:02:21;100594.03;;;16.05;74.60
43707;BME280;61348;53.392;-6.248;2023-06-10T02:04:48;100590.84;;;16.03;74.93
43707;BME280;61348;53.392;-6.248;2023-06-10T02:07:15;100579.63;;;16.00;75.01
43707;BME280;61348;53.392;-6.248;2023-06-10T02:09:42;100589.63;;;16.01;75.22
43707;BME280;61348;53.392;-6.248;2023-06-10T02:12:09;100583.63;;;15.99;75.35
43707;BME280;61348;53.392;-6.248;2023-06-10T02:14:36;100585.97;;;15.93;75.37
43707;BME280;61348;53.392;-6.248;2023-06-10T02:17:03;100589.09;;;15.88;75.57
43707;BME280;61348;53.392;-6.248;2023-06-10T02:19:31;100589.06;;;15.84;75.82
43707;BME280;61348;53.392;-6.248;2023-06-10T02:21:57;100578.69;;;15.85;76.12
43707;BME280;61348;53.392;-6.248;2023-06-10T02:24:24;100585.84;;;15.82;76.08
43707;BME280;61348;53.392;-6.248;2023-06-10T02:26:51;100582.66;;;15.80;76.18
43707;BME280;61348;53.392;-6.248;2023-06-10T02:29:18;100587.44;;;15.80;76.38
43707;BME280;61348;53.392;-6.248;2023-06-10T02:31:45;100583.84;;;15.79;76.41
43707;BME280;61348;53.392;-6.248;2023-06-10T02:34:11;100580.22;;;15.79;76.60
43707;BME280;61348;53.392;-6.248;2023-06-10T02:36:38;100578.66;;;15.81;76.75
43707;BME280;61348;53.392;-6.248;2023-06-10T02:39:05;100579.06;;;15.83;76.55
43707;BME280;61348;53.392;-6.248;2023-06-10T02:41:32;100582.66;;;15.84;76.62
43707;BME280;61348;53.392;-6.248;2023-06-10T02:43:59;100576.28;;;15.83;77.01
43707;BME280;61348;53.392;-6.248;2023-06-10T02:46:25;100578.66;;;15.81;76.88
43707;BME280;61348;53.392;-6.248;2023-06-10T02:48:52;100580.66;;;15.81;77.17
43707;BME280;61348;53.392;-6.248;2023-06-10T02:51:19;100582.66;;;15.80;77.15
43707;BME280;61348;53.392;-6.248;2023-06-10T02:53:47;100590.63;;;15.82;77.00
43707;BME280;61348;53.392;-6.248;2023-06-10T02:56:16;100584.66;;;15.83;77.33
43707;BME280;61348;53.392;-6.248;2023-06-10T02:58:43;100588.66;;;15.82;77.30
43707;BME280;61348;53.392;-6.248;2023-06-10T03:01:10;100583.88;;;15.83;77.41
43707;BME280;61348;53.392;-6.248;2023-06-10T03:03:37;100588.25;;;15.84;77.55
43707;BME280;61348;53.392;-6.248;2023-06-10T03:06:12;100589.47;;;15.83;77.46
43707;BME280;61348;53.392;-6.248;2023-06-10T03:08:43;100594.22;;;15.82;77.51
43707;BME280;61348;53.392;-6.248;2023-06-10T03:11:09;100581.84;;;15.83;77.63
43707;BME280;61348;53.392;-6.248;2023-06-10T03:13:38;100582.25;;;15.82;77.87
43707;BME280;61348;53.392;-6.248;2023-06-10T03:16:06;100587.44;;;15.80;77.88
43707;BME280;61348;53.392;-6.248;2023-06-10T03:18:34;100581.84;;;15.80;78.08
43707;BME280;61348;53.392;-6.248;2023-06-10T03:21:01;100592.19;;;15.79;78.06
43707;BME280;61348;53.392;-6.248;2023-06-10T03:23:29;100594.94;;;15.76;78.11
43707;BME280;61348;53.392;-6.248;2023-06-10T03:25:56;100588.19;;;15.77;78.31
43707;BME280;61348;53.392;-6.248;2023-06-10T03:28:23;100587.00;;;15.78;78.36
43707;BME280;61348;53.392;-6.248;2023-06-10T03:30:49;100581.41;;;15.78;78.43
43707;BME280;61348;53.392;-6.248;2023-06-10T03:33:18;100581.41;;;15.78;78.46
43707;BME280;61348;53.392;-6.248;2023-06-10T03:35:45;100584.19;;;15.78;78.47
43707;BME280;61348;53.392;-6.248;2023-06-10T03:38:11;100586.97;;;15.74;78.56
43707;BME280;61348;53.392;-6.248;2023-06-10T03:40:38;100588.97;;;15.74;78.67
43707;BME280;61348;53.392;-6.248;2023-06-10T03:43:05;100586.16;;;15.74;78.49
43707;BME280;61348;53.392;-6.248;2023-06-10T03:45:32;100585.75;;;15.72;78.76
43707;BME280;61348;53.392;-6.248;2023-06-10T03:48:01;100582.56;;;15.70;78.72
43707;BME280;61348;53.392;-6.248;2023-06-10T03:50:29;100586.53;;;15.69;79.05
43707;BME280;61348;53.392;-6.248;2023-06-10T03:52:57;100584.91;;;15.68;79.04
43707;BME280;61348;53.392;-6.248;2023-06-10T03:55:24;100586.94;;;15.71;79.10
43707;BME280;61348;53.392;-6.248;2023-06-10T03:57:51;100592.50;;;15.71;79.09
43707;BME280;61348;53.392;-6.248;2023-06-10T04:00:18;100587.31;;;15.69;79.06
43707;BME280;61348;53.392;-6.248;2023-06-10T04:02:47;100585.34;;;15.70;79.10
43707;BME280;61348;53.392;-6.248;2023-06-10T04:05:19;100584.91;;;15.68;79.31
43707;BME280;61348;53.392;-6.248;2023-06-10T04:07:49;100592.88;;;15.66;79.41
43707;BME280;61348;53.392;-6.248;2023-06-10T04:10:17;100583.31;;;15.67;79.51
43707;BME280;61348;53.392;-6.248;2023-06-10T04:12:44;100569.78;;;15.69;79.47
43707;BME280;61348;53.392;-6.248;2023-06-10T04:15:11;100571.34;;;15.66;79.37
43707;BME280;61348;53.392;-6.248;2023-06-10T04:17:39;100575.69;;;15.64;79.71
43707;BME280;61348;53.392;-6.248;2023-06-10T04:20:07;100573.69;;;15.61;79.71
43707;BME280;61348;53.392;-6.248;2023-06-10T04:22:34;100575.69;;;15.64;79.99
43707;BME280;61348;53.392;-6.248;2023-06-10T04:25:01;100567.75;;;15.66;79.87
43707;BME280;61348;53.392;-6.248;2023-06-10T04:27:29;100569.72;;;15.65;79.96
43707;BME280;61348;53.392;-6.248;2023-06-10T04:29:56;100573.72;;;15.64;80.07
43707;BME280;61348;53.392;-6.248;2023-06-10T04:32:23;100566.13;;;15.65;80.10
43707;BME280;61348;53.392;-6.248;2023-06-10T04:34:50;100563.78;;;15.67;80.09
43707;BME280;61348;53.392;-6.248;2023-06-10T04:37:17;100564.16;;;15.65;80.10
43707;BME280;61348;53.392;-6.248;2023-06-10T04:39:44;100567.34;;;15.67;80.31
43707;BME280;61348;53.392;-6.248;2023-06-10T04:42:11;100565.75;;;15.66;80.44
43707;BME280;61348;53.392;-6.248;2023-06-10T04:44:38;100570.53;;;15.66;80.41
43707;BME280;61348;53.392;-6.248;2023-06-10T04:47:05;100571.72;;;15.65;80.61
43707;BME280;61348;53.392;-6.248;2023-06-10T04:49:34;100578.50;;;15.64;80.78
43707;BME280;61348;53.392;-6.248;2023-06-10T04:52:02;100577.72;;;15.67;80.65
43707;BME280;61348;53.392;-6.248;2023-06-10T04:54:30;100572.94;;;15.67;80.60
43707;BME280;61348;53.392;-6.248;2023-06-10T04:56:58;100565.81;;;15.70;80.79
43707;BME280;61348;53.392;-6.248;2023-06-10T04:59:24;100570.59;;;15.73;80.73
43707;BME280;61348;53.392;-6.248;2023-06-10T05:01:51;100572.22;;;15.74;80.82
43707;BME280;61348;53.392;-6.248;2023-06-10T05:04:18;100571.44;;;15.77;80.78
43707;BME280;61348;53.392;-6.248;2023-06-10T05:06:45;100567.44;;;15.78;80.83
43707;BME280;61348;53.392;-6.248;2023-06-10T05:09:12;100570.25;;;15.78;80.92
43707;BME280;61348;53.392;-6.248;2023-06-10T05:11:39;100575.47;;;15.79;80.83
43707;BME280;61348;53.392;-6.248;2023-06-10T05:14:06;100574.69;;;15.82;80.79
43707;BME280;61348;53.392;-6.248;2023-06-10T05:16:33;100580.28;;;15.86;80.90
43707;BME280;61348;53.392;-6.248;2023-06-10T05:19:01;100576.72;;;15.86;80.95
43707;BME280;61348;53.392;-6.248;2023-06-10T05:21:29;100575.16;;;15.88;80.92
43707;BME280;61348;53.392;-6.248;2023-06-10T05:23:56;100582.75;;;15.91;80.85
43707;BME280;61348;53.392;-6.248;2023-06-10T05:26:23;100580.38;;;15.93;80.91
43707;BME280;61348;53.392;-6.248;2023-06-10T05:28:51;100570.41;;;15.96;80.86
43707;BME280;61348;53.392;-6.248;2023-06-10T05:31:19;100574.78;;;15.93;80.93
43707;BME280;61348;53.392;-6.248;2023-06-10T05:33:46;100569.97;;;15.90;80.87
43707;BME280;61348;53.392;-6.248;2023-06-10T05:36:13;100587.13;;;15.92;81.06
43707;BME280;61348;53.392;-6.248;2023-06-10T05:38:40;100583.56;;;15.95;80.79
43707;BME280;61348;53.392;-6.248;2023-06-10T05:41:06;100586.00;;;16.00;81.03
43707;BME280;61348;53.392;-6.248;2023-06-10T05:43:33;100583.63;;;16.02;80.85
43707;BME280;61348;53.392;-6.248;2023-06-10T05:46:00;100576.47;;;16.01;80.88
43707;BME280;61348;53.392;-6.248;2023-06-10T05:48:27;100583.63;;;16.02;80.85
43707;BME280;61348;53.392;-6.248;2023-06-10T05:50:54;100578.09;;;16.06;80.78
43707;BME280;61348;53.392;-6.248;2023-06-10T05:53:20;100577.31;;;16.09;80.70
43707;BME280;61348;53.392;-6.248;2023-06-10T05:55:47;100582.09;;;16.08;80.67
43707;BME280;61348;53.392;-6.248;2023-06-10T05:58:15;100572.53;;;16.09;80.58
43707;BME280;61348;53.392;-6.248;2023-06-10T06:00:42;100580.53;;;16.11;80.39
43707;BME280;61348;53.392;-6.248;2023-06-10T06:03:09;100583.31;;;16.11;80.62
43707;BME280;61348;53.392;-6.248;2023-06-10T06:05:37;100578.94;;;16.13;80.55
43707;BME280;61348;53.392;-6.248;2023-06-10T06:08:05;100578.16;;;16.16;80.43
43707;BME280;61348;53.392;-6.248;2023-06-10T06:10:32;100580.16;;;16.16;80.32
43707;BME280;61348;53.392;-6.248;2023-06-10T06:13:00;100589.75;;;16.15;80.50
43707;BME280;61348;53.392;-6.248;2023-06-10T06:15:27;100581.00;;;16.20;80.51
43707;BME280;61348;53.392;-6.248;2023-06-10T06:17:54;100578.25;;;16.27;80.66
43707;BME280;61348;53.392;-6.248;2023-06-10T06:20:22;100584.28;;;16.32;80.53
43707;BME280;61348;53.392;-6.248;2023-06-10T06:22:49;100582.31;;;16.36;80.24
43707;BME280;61348;53.392;-6.248;2023-06-10T06:25:16;100581.94;;;16.41;80.15
43707;BME280;61348;53.392;-6.248;2023-06-10T06:27:45;100584.00;;;16.48;80.15
43707;BME280;61348;53.392;-6.248;2023-06-10T06:30:12;100587.28;;;16.61;80.09
43707;BME280;61348;53.392;-6.248;2023-06-10T06:32:39;100586.97;;;16.69;79.78
43707;BME280;61348;53.392;-6.248;2023-06-10T06:35:07;100590.19;;;16.75;79.76
43707;BME280;61348;53.392;-6.248;2023-06-10T06:37:35;100585.41;;;16.79;79.57
43707;BME280;61348;53.392;-6.248;2023-06-10T06:40:02;100588.22;;;16.82;79.51
43707;BME280;61348;53.392;-6.248;2023-06-10T06:42:30;100596.63;;;16.82;79.38
43707;BME280;61348;53.392;-6.248;2023-06-10T06:44:57;100598.59;;;16.78;79.19
43707;BME280;61348;53.392;-6.248;2023-06-10T06:47:24;100590.56;;;16.73;79.17
43707;BME280;61348;53.392;-6.248;2023-06-10T06:49:51;100588.13;;;16.65;79.14
43707;BME280;61348;53.392;-6.248;2023-06-10T06:52:18;100588.13;;;16.65;79.07
43707;BME280;61348;53.392;-6.248;2023-06-10T06:54:45;100591.34;;;16.67;79.29
43707;BME280;61348;53.392;-6.248;2023-06-10T06:57:12;100585.78;;;16.74;79.24
43707;BME280;61348;53.392;-6.248;2023-06-10T06:59:39;100596.97;;;16.74;79.03
43707;BME280;61348;53.392;-6.248;2023-06-10T07:02:06;100596.97;;;16.74;78.74
43707;BME280;61348;53.392;-6.248;2023-06-10T07:04:33;100596.59;;;16.79;79.13
43707;BME280;61348;53.392;-6.248;2023-06-10T07:07:00;100599.00;;;16.84;78.79
43707;BME280;61348;53.392;-6.248;2023-06-10T07:09:27;100603.44;;;16.92;78.79
43707;BME280;61348;53.392;-6.248;2023-06-10T07:11:54;100605.09;;;17.00;78.75
43707;BME280;61348;53.392;-6.248;2023-06-10T07:14:21;100607.13;;;17.07;78.69
43707;BME280;61348;53.392;-6.248;2023-06-10T07:16:49;100606.00;;;17.18;78.94
43707;BME280;61348;53.392;-6.248;2023-06-10T07:19:16;100605.66;;;17.37;79.14
43707;BME280;61348;53.392;-6.248;2023-06-10T07:21:43;100618.94;;;17.54;79.44
43707;BME280;61348;53.392;-6.248;2023-06-10T07:24:09;100614.97;;;17.66;79.33
43707;BME280;61348;53.392;-6.248;2023-06-10T07:26:36;100616.59;;;17.78;79.09
43707;BME280;61348;53.392;-6.248;2023-06-10T07:29:03;100625.03;;;17.88;79.10
43707;BME280;61348;53.392;-6.248;2023-06-10T07:31:30;100623.06;;;17.92;78.54
43707;BME280;61348;53.392;-6.248;2023-06-10T07:33:57;100620.25;;;18.03;78.02
43707;BME280;61348;53.392;-6.248;2023-06-10T07:36:24;100627.88;;;18.13;77.74
43707;BME280;61348;53.392;-6.248;2023-06-10T07:38:54;100632.25;;;18.24;77.44
43707;BME280;61348;53.392;-6.248;2023-06-10T07:41:23;100624.69;;;18.39;77.12
43707;BME280;61348;53.392;-6.248;2023-06-10T07:43:53;100623.88;;;18.67;77.60
43707;BME280;61348;53.392;-6.248;2023-06-10T07:46:22;100622.94;;;19.16;77.82
43707;BME280;61348;53.392;-6.248;2023-06-10T07:48:49;100628.38;;;19.65;77.51
43707;BME280;61348;53.392;-6.248;2023-06-10T07:51:16;100627.00;;;19.94;76.17
43707;BME280;61348;53.392;-6.248;2023-06-10T07:53:43;100629.81;;;19.94;75.23
43707;BME280;61348;53.392;-6.248;2023-06-10T07:56:11;100628.59;;;19.95;74.19
43707;BME280;61348;53.392;-6.248;2023-06-10T07:58:38;100638.53;;;20.07;73.74
43707;BME280;61348;53.392;-6.248;2023-06-10T08:01:05;100634.03;;;20.20;72.77
43707;BME280;61348;53.392;-6.248;2023-06-10T08:03:32;100644.88;;;20.22;72.06
43707;BME280;61348;53.392;-6.248;2023-06-10T08:05:59;100632.16;;;20.54;70.92
43707;BME280;61348;53.392;-6.248;2023-06-10T08:08:26;100627.28;;;20.62;69.35
43707;BME280;61348;53.392;-6.248;2023-06-10T08:10:52;100634.66;;;20.49;68.50
43707;BME280;61348;53.392;-6.248;2023-06-10T08:13:19;100632.25;;;20.44;68.17
43707;BME280;61348;53.392;-6.248;2023-06-10T08:15:47;100638.72;;;20.41;67.61
43707;BME280;61348;53.392;-6.248;2023-06-10T08:18:17;100638.75;;;20.37;67.51
43707;BME280;61348;53.392;-6.248;2023-06-10T08:20:44;100635.97;;;20.34;67.51
43707;BME280;61348;53.392;-6.248;2023-06-10T08:23:11;100633.19;;;20.30;67.07
43707;BME280;61348;53.392;-6.248;2023-06-10T08:25:37;100629.59;;;20.23;66.66
43707;BME280;61348;53.392;-6.248;2023-06-10T08:28:04;100635.28;;;20.12;66.77
43707;BME280;61348;53.392;-6.248;2023-06-10T08:30:31;100626.16;;;19.97;66.40
43707;BME280;61348;53.392;-6.248;2023-06-10T08:32:58;100633.09;;;19.82;66.44
43707;BME280;61348;53.392;-6.248;2023-06-10T08:35:24;100632.78;;;19.66;66.70
43707;BME280;61348;53.392;-6.248;2023-06-10T08:37:51;100629.25;;;19.52;66.98
43707;BME280;61348;53.392;-6.248;2023-06-10T08:40:18;100630.09;;;19.45;66.96
43707;BME280;61348;53.392;-6.248;2023-06-10T08:45:18;100634.81;;;19.62;66.85
43707;BME280;61348;53.392;-6.248;2023-06-10T08:47:46;100631.44;;;19.88;66.53
43707;BME280;61348;53.392;-6.248;2023-06-10T08:50:17;100630.16;;;20.00;66.15
43707;BME280;61348;53.392;-6.248;2023-06-10T08:52:48;100626.94;;;20.01;65.86
43707;BME280;61348;53.392;-6.248;2023-06-10T08:55:18;100632.22;;;19.92;66.02
43707;BME280;61348;53.392;-6.248;2023-06-10T08:57:49;100637.91;;;19.85;66.07
43707;BME280;61348;53.392;-6.248;2023-06-10T09:00:18;100637.03;;;19.92;66.42
43707;BME280;61348;53.392;-6.248;2023-06-10T09:02:46;100637.03;;;19.95;65.95
43707;BME280;61348;53.392;-6.248;2023-06-10T09:05:13;100637.06;;;19.88;65.99
43707;BME280;61348;53.392;-6.248;2023-06-10T09:07:43;100635.91;;;19.82;66.27
43707;BME280;61348;53.392;-6.248;2023-06-10T09:10:11;100638.75;;;19.75;66.30
43707;BME280;61348;53.392;-6.248;2023-06-10T09:12:38;100643.16;;;19.73;66.46
43707;BME280;61348;53.392;-6.248;2023-06-10T09:15:06;100641.97;;;19.77;66.43
43707;BME280;61348;53.392;-6.248;2023-06-10T09:17:33;100638.31;;;19.80;66.19
43707;BME280;61348;53.392;-6.248;2023-06-10T09:20:03;100637.03;;;19.92;66.50
43707;BME280;61348;53.392;-6.248;2023-06-10T09:22:29;100635.84;;;19.93;65.82
43707;BME280;61348;53.392;-6.248;2023-06-10T09:25:07;100639.47;;;19.93;66.02
43707;BME280;61348;53.392;-6.248;2023-06-10T09:27:50;100634.97;;;19.99;65.81
43707;BME280;61348;53.392;-6.248;2023-06-10T09:30:33;100628.16;;;20.04;65.89
43707;BME280;61348;53.392;-6.248;2023-06-10T09:33:03;100622.09;;;20.09;65.47
43707;BME280;61348;53.392;-6.248;2023-06-10T09:35:36;100638.03;;;20.26;65.34
43707;BME280;61348;53.392;-6.248;2023-06-10T09:38:03;100638.66;;;20.48;64.75
43707;BME280;61348;53.392;-6.248;2023-06-10T09:40:29;100653.25;;;20.77;64.09
43707;BME280;61348;53.392;-6.248;2023-06-10T09:42:58;100647.19;;;20.82;63.92
43707;BME280;61348;53.392;-6.248;2023-06-10T09:45:32;100648.25;;;20.95;64.44
43707;BME280;61348;53.392;-6.248;2023-06-10T09:48:00;100644.22;;;20.99;63.34
43707;BME280;61348;53.392;-6.248;2023-06-10T09:50:27;100645.16;;;20.82;63.72
43707;BME280;61348;53.392;-6.248;2023-06-10T09:52:56;100646.91;;;20.69;63.60
43707;BME280;61348;53.392;-6.248;2023-06-10T09:55:23;100645.81;;;20.56;63.72
43707;BME280;61348;53.392;-6.248;2023-06-10T09:57:53;100642.22;;;20.55;64.11
43707;BME280;61348;53.392;-6.248;2023-06-10T10:00:22;100643.63;;;20.78;63.81
43707;BME280;61348;53.392;-6.248;2023-06-10T10:02:50;100646.72;;;20.87;63.44
43707;BME280;61348;53.392;-6.248;2023-06-10T10:05:21;100642.81;;;20.77;63.71
43707;BME280;61348;53.392;-6.248;2023-06-10T10:07:49;100638.44;;;20.73;63.83
43707;BME280;61348;53.392;-6.248;2023-06-10T10:10:18;100625.03;;;20.87;63.38
43707;BME280;61348;53.392;-6.248;2023-06-10T10:12:47;100632.06;;;21.06;63.10
43707;BME280;61348;53.392;-6.248;2023-06-10T10:15:16;100619.63;;;21.03;62.90
43707;BME280;61348;53.392;-6.248;2023-06-10T10:17:58;100619.38;;;20.87;62.75
43707;BME280;61348;53.392;-6.248;2023-06-10T10:20:31;100623.19;;;20.70;63.22
43707;BME280;61348;53.392;-6.248;2023-06-10T10:23:02;100617.72;;;20.52;63.33
43707;BME280;61348;53.392;-6.248;2023-06-10T10:25:34;100617.09;;;20.31;63.80
43707;BME280;61348;53.392;-6.248;2023-06-10T10:28:08;100611.16;;;20.18;64.10
43707;BME280;61348;53.392;-6.248;2023-06-10T10:30:42;100604.03;;;20.07;63.91
43707;BME280;61348;53.392;-6.248;2023-06-10T10:33:20;100609.28;;;20.01;64.33
43707;BME280;61348;53.392;-6.248;2023-06-10T10:35:50;100600.06;;;20.00;64.65
43707;BME280;61348;53.392;-6.248;2023-06-10T10:38:17;100592.03;;;19.99;64.59
43707;BME280;61348;53.392;-6.248;2023-06-10T10:40:45;100589.25;;;19.95;64.76
43707;BME280;61348;53.392;-6.248;2023-06-10T10:43:14;100583.28;;;19.90;64.47
43707;BME280;61348;53.392;-6.248;2023-06-10T10:45:42;100584.53;;;19.85;64.56
43707;BME280;61348;53.392;-6.248;2023-06-10T10:48:09;100591.34;;;19.84;64.61
43707;BME280;61348;53.392;-6.248;2023-06-10T10:50:39;100580.84;;;19.92;64.52
43707;BME280;61348;53.392;-6.248;2023-06-10T10:53:07;100584.75;;;20.09;64.45
43707;BME280;61348;53.392;-6.248;2023-06-10T10:55:34;100581.72;;;20.33;64.09
43707;BME280;61348;53.392;-6.248;2023-06-10T10:58:06;100581.13;;;20.56;63.44
43707;BME280;61348;53.392;-6.248;2023-06-10T11:00:35;100590.56;;;20.76;63.35
43707;BME280;61348;53.392;-6.248;2023-06-10T11:06:01;100587.75;;;21.13;62.91
43707;BME280;61348;53.392;-6.248;2023-06-10T11:11:22;100590.06;;;21.22;62.61
43707;BME280;61348;53.392;-6.248;2023-06-10T11:14:07;100582.88;;;21.17;62.53
43707;BME280;61348;53.392;-6.248;2023-06-10T11:16:40;100590.91;;;21.19;62.74
43707;BME280;61348;53.392;-6.248;2023-06-10T11:19:37;100593.25;;;21.24;62.84
43707;BME280;61348;53.392;-6.248;2023-06-10T11:22:06;100598.41;;;21.29;62.36
43707;BME280;61348;53.392;-6.248;2023-06-10T11:24:34;100594.25;;;21.41;62.32
43707;BME280;61348;53.392;-6.248;2023-06-10T11:27:20;100591.41;;;21.44;61.90
43707;BME280;61348;53.392;-6.248;2023-06-10T11:29:58;100595.78;;;21.45;62.09
43707;BME280;61348;53.392;-6.248;2023-06-10T11:32:33;100592.50;;;21.50;61.98
43707;BME280;61348;53.392;-6.248;2023-06-10T11:35:05;100587.56;;;21.58;61.94
43707;BME280;61348;53.392;-6.248;2023-06-10T11:37:33;100591.19;;;21.58;61.63
43707;BME280;61348;53.392;-6.248;2023-06-10T11:40:00;100592.94;;;21.49;61.81
43707;BME280;61348;53.392;-6.248;2023-06-10T11:42:27;100573.25;;;21.45;61.46
43707;BME280;61348;53.392;-6.248;2023-06-10T11:44:54;100585.22;;;21.53;61.12
43707;BME280;61348;53.392;-6.248;2023-06-10T11:47:21;100584.31;;;21.63;61.30
43707;BME280;61348;53.392;-6.248;2023-06-10T11:49:57;100579.97;;;21.55;61.14
43707;BME280;61348;53.392;-6.248;2023-06-10T11:52:30;100573.69;;;21.44;60.92
43707;BME280;61348;53.392;-6.248;2023-06-10T11:55:05;100581.81;;;21.38;61.16
43707;BME280;61348;53.392;-6.248;2023-06-10T11:57:35;100580.66;;;21.36;60.89
43707;BME280;61348;53.392;-6.248;2023-06-10T12:00:06;100577.72;;;21.43;61.18
43707;BME280;61348;53.392;-6.248;2023-06-10T12:02:37;100578.50;;;21.47;61.22
43707;BME280;61348;53.392;-6.248;2023-06-10T12:05:12;100581.47;;;21.63;60.79
43707;BME280;61348;53.392;-6.248;2023-06-10T12:07:39;100586.63;;;21.68;60.26
43707;BME280;61348;53.392;-6.248;2023-06-10T12:10:07;100583.66;;;21.78;60.26
43707;BME280;61348;53.392;-6.248;2023-06-10T12:12:52;100594.88;;;21.82;60.13
43707;BME280;61348;53.392;-6.248;2023-06-10T12:15:25;100598.06;;;21.84;60.31
43707;BME280;61348;53.392;-6.248;2023-06-10T12:17:52;100598.94;;;21.81;60.21
43707;BME280;61348;53.392;-6.248;2023-06-10T12:20:27;100602.09;;;21.83;60.25
43707;BME280;61348;53.392;-6.248;2023-06-10T12:22:55;100596.50;;;21.79;59.98
43707;BME280;61348;53.392;-6.248;2023-06-10T12:25:26;100611.84;;;21.78;59.75
43707;BME280;61348;53.392;-6.248;2023-06-10T12:27:57;100603.00;;;21.76;60.00
43707;BME280;61348;53.392;-6.248;2023-06-10T12:30:26;100600.66;;;21.71;59.65
43707;BME280;61348;53.392;-6.248;2023-06-10T12:32:53;100607.22;;;21.65;59.16
43707;BME280;61348;53.392;-6.248;2023-06-10T12:35:22;100594.06;;;21.55;59.33
43707;BME280;61348;53.392;-6.248;2023-06-10T12:38:09;100600.06;;;21.57;59.35
43707;BME280;61348;53.392;-6.248;2023-06-10T12:40:41;100600.19;;;21.50;59.24
43707;BME280;61348;53.392;-6.248;2023-06-10T12:43:09;100596.09;;;21.54;59.01
43707;BME280;61348;53.392;-6.248;2023-06-10T12:45:37;100590.81;;;21.56;59.43
43707;BME280;61348;53.392;-6.248;2023-06-10T12:48:22;100591.47;;;21.67;59.28
43707;BME280;61348;53.392;-6.248;2023-06-10T12:50:53;100599.50;;;21.69;58.88
43707;BME280;61348;53.392;-6.248;2023-06-10T12:53:21;100594.28;;;21.67;59.02
43707;BME280;61348;53.392;-6.248;2023-06-10T12:55:52;100600.09;;;21.53;59.04
43707;BME280;61348;53.392;-6.248;2023-06-10T12:58:21;100595.53;;;21.36;59.11